METAR UND TAF INFORMATION
EDHK 241120Z 03005KT 350V060 9999 SCT032 BKN042 17/12 Q1019

 FLUGHAFENKARTE

 RUNWAY INFORMATION
Runway 08 Runway length 4134 ft Runway width 98 ft
Runway elevation 99 ft Runway displaced threshold 525 ft Runway heading 82
Runway 26 Runway length 4134 ft Runway width 98 ft
Runway elevation 89 ft Runway displaced threshold 144 ft Runway heading 262
Runway 08L Runway length 1476 ft Runway width 115 ft
Runway elevation 0 ft Runway displaced threshold 0 ft Runway heading 81
Runway 26R Runway length 1476 ft Runway width 115 ft
Runway elevation 0 ft Runway displaced threshold 0 ft Runway heading 261

 AIRPORT FREQUENCIES
Type AFIS Name BREMEN INF Frequency 125.1 MHZ
Type GND Name GND Frequency 125.6 MHZ
Type OPS Name KIEL MIL Frequency 33.832 MHZ
Type RDR Name BREMEN RAD Frequency 136.225 MHZ
Type RMP Name APRON Frequency 121.9 MHZ
Type TWR Name TWR Frequency 119.975 MHZ

 AIRPORT NEAR NAVIGATION AIDS
Type DME Name Kiel Holtenau Frequency 109500 KHZ
Type NDB Name Kiel Holtenau Frequency 353 KHZ